createdAt,value
2022-10-12T00:04:14.480Z,96.52
2022-10-12T00:09:19.219Z,96.37
2022-10-12T00:14:22.625Z,96.87
2022-10-12T00:19:25.993Z,97.35
2022-10-12T00:24:30.771Z,97.04
2022-10-12T00:29:34.381Z,97.08
2022-10-12T00:34:37.761Z,97.12
2022-10-12T00:39:42.517Z,97.58
2022-10-12T00:44:47.692Z,97.39
2022-10-12T00:49:55.994Z,98.27
2022-10-12T00:55:02.048Z,99.97
2022-10-12T01:00:09.222Z,99.53
2022-10-12T01:05:13.858Z,99.14
2022-10-12T01:10:19.342Z,99.42
2022-10-12T01:15:28.276Z,99.40
2022-10-12T01:20:47.231Z,99.29
2022-10-12T01:26:17.787Z,99.21
2022-10-12T01:31:32.616Z,99.15
2022-10-12T01:36:40.325Z,99.16
2022-10-12T01:41:49.888Z,99.69
2022-10-12T01:46:55.249Z,100.00
2022-10-12T01:52:30.138Z,99.93
2022-10-12T01:57:43.566Z,99.96
2022-10-12T02:02:56.051Z,100.00
2022-10-12T02:08:07.590Z,100.00
2022-10-12T02:13:14.781Z,100.00
2022-10-12T02:18:22.911Z,99.81
2022-10-12T02:23:27.242Z,100.00
2022-10-12T02:28:35.691Z,99.93
2022-10-12T02:33:47.371Z,100.00
2022-10-12T02:38:56.621Z,100.00
2022-10-12T02:44:02.781Z,100.00
2022-10-12T02:49:08.855Z,99.80
2022-10-12T02:54:13.664Z,100.00
2022-10-12T02:59:18.709Z,100.00
2022-10-12T03:04:24.449Z,100.00
2022-10-12T03:09:28.148Z,100.00
2022-10-12T03:14:33.186Z,100.00
2022-10-12T03:19:39.858Z,100.00
2022-10-12T03:24:43.341Z,100.00
2022-10-12T03:29:46.865Z,100.00
2022-10-12T03:34:51.672Z,100.00
2022-10-12T03:39:54.961Z,100.00
2022-10-12T03:44:58.331Z,100.00
2022-10-12T03:50:03.104Z,100.00
2022-10-12T03:55:07.730Z,100.00
2022-10-12T04:00:12.528Z,100.00
2022-10-12T04:05:17.706Z,100.00
2022-10-12T04:10:21.233Z,100.00
2022-10-12T04:15:24.596Z,100.00
2022-10-12T04:20:29.300Z,100.00
2022-10-12T04:25:32.713Z,100.00
2022-10-12T04:30:36.435Z,100.00
2022-10-12T04:35:41.106Z,100.00
2022-10-12T04:40:47.644Z,100.00
2022-10-12T04:45:56.310Z,100.00
2022-10-12T04:51:01.044Z,100.00
2022-10-12T04:56:05.501Z,100.00
2022-10-12T05:01:08.956Z,100.00
2022-10-12T05:06:18.897Z,100.00
2022-10-12T05:11:23.417Z,100.00
2022-10-12T05:16:29.717Z,100.00
2022-10-12T05:21:35.136Z,100.00
2022-10-12T05:26:38.721Z,100.00
2022-10-12T05:31:42.303Z,100.00
2022-10-12T05:36:47.148Z,100.00
2022-10-12T05:41:51.449Z,100.00
2022-10-12T05:46:54.812Z,100.00
2022-10-12T05:51:59.677Z,100.00
2022-10-12T05:57:03.245Z,99.01
2022-10-12T06:02:06.831Z,98.95
2022-10-12T06:07:11.600Z,96.82
2022-10-12T06:12:15.790Z,96.22
2022-10-12T06:17:19.180Z,95.14
2022-10-12T06:22:23.933Z,94.64
2022-10-12T06:27:27.357Z,93.47
2022-10-12T06:32:30.850Z,92.78
2022-10-12T06:37:49.611Z,91.73
2022-10-12T06:42:58.431Z,89.48
2022-10-12T06:48:02.323Z,78.69
2022-10-12T06:53:07.169Z,64.78
2022-10-12T06:58:10.533Z,60.79
2022-10-12T07:03:14.268Z,58.75
2022-10-12T07:08:18.974Z,57.26
2022-10-12T07:13:22.318Z,50.81
2022-10-12T07:18:25.794Z,50.42
2022-10-12T07:23:31.110Z,52.16
2022-10-12T07:28:35.686Z,48.72
2022-10-12T07:33:39.953Z,45.39
2022-10-12T07:38:45.786Z,46.39
2022-10-12T07:43:49.230Z,46.88
2022-10-12T07:48:52.860Z,47.27
2022-10-12T07:53:57.581Z,46.44
2022-10-12T07:59:01.024Z,43.79
2022-10-12T08:04:04.866Z,44.45
2022-10-12T08:09:09.863Z,45.82
2022-10-12T08:14:14.604Z,45.68
2022-10-12T08:19:18.148Z,46.10
2022-10-12T08:24:23.063Z,46.85
2022-10-12T08:29:26.555Z,49.58
2022-10-12T08:34:30.962Z,48.07
2022-10-12T08:39:35.692Z,47.08
2022-10-12T08:44:58.908Z,45.67
2022-10-12T08:50:04.732Z,44.88
2022-10-12T08:55:23.090Z,43.87
2022-10-12T09:00:27.265Z,45.84
2022-10-12T09:05:35.628Z,44.09
2022-10-12T09:10:47.010Z,43.12
2022-10-12T09:15:53.797Z,43.42
2022-10-12T09:20:58.284Z,43.31
2022-10-12T09:26:08.189Z,42.31
2022-10-12T09:31:20.674Z,42.28
2022-10-12T09:36:26.618Z,42.81
2022-10-12T09:41:34.694Z,41.77
2022-10-12T09:46:42.749Z,41.27
2022-10-12T09:51:47.347Z,43.28
2022-10-12T09:56:52.536Z,43.12
2022-10-12T10:02:04.855Z,41.89
2022-10-12T10:07:20.138Z,41.97
2022-10-12T10:12:27.820Z,41.27
2022-10-12T10:17:34.058Z,39.86
2022-10-12T10:22:38.363Z,40.62
2022-10-12T10:27:43.110Z,40.46
2022-10-12T10:32:47.733Z,40.12
2022-10-12T10:37:54.038Z,39.81
2022-10-12T10:43:00.198Z,40.63
2022-10-12T10:48:09.434Z,41.94
2022-10-12T10:53:20.324Z,42.30
2022-10-12T10:58:31.189Z,43.47
2022-10-12T11:03:47.039Z,43.72
2022-10-12T11:08:59.939Z,45.50
2022-10-12T11:14:11.901Z,45.86
2022-10-12T11:19:30.695Z,45.73
2022-10-12T11:24:41.786Z,46.34
2022-10-12T11:29:54.183Z,46.61
2022-10-12T11:35:16.364Z,45.87
2022-10-12T11:41:00.098Z,43.53
2022-10-12T11:46:03.083Z,42.58
2022-10-12T11:51:07.810Z,40.89
2022-10-12T11:56:19.318Z,40.36
2022-10-12T12:01:50.600Z,39.45
2022-10-12T12:06:57.467Z,39.55
2022-10-12T12:12:25.730Z,41.32
2022-10-12T12:17:32.523Z,39.46
2022-10-12T12:22:52.081Z,40.37
2022-10-12T12:27:57.613Z,39.14
2022-10-12T12:33:05.991Z,39.12
2022-10-12T12:38:25.534Z,38.18
2022-10-12T12:44:03.290Z,38.33
2022-10-12T12:49:27.260Z,38.07
2022-10-12T12:54:31.138Z,38.42
2022-10-12T13:00:00.790Z,40.57
2022-10-12T13:05:18.393Z,41.99
2022-10-12T13:10:39.757Z,42.68
2022-10-12T13:16:01.865Z,42.36
2022-10-12T13:21:09.341Z,41.15
2022-10-12T13:26:18.729Z,42.76
2022-10-12T13:31:27.842Z,43.01
2022-10-12T13:36:36.946Z,44.25
2022-10-12T13:41:41.323Z,45.08
2022-10-12T13:46:47.370Z,46.71
2022-10-12T13:51:54.566Z,47.97
2022-10-12T13:57:03.253Z,46.98
2022-10-12T14:02:19.054Z,47.48
2022-10-12T14:07:26.543Z,49.58
2022-10-12T14:12:32.594Z,51.52
2022-10-12T14:17:44.858Z,51.06
2022-10-12T14:22:50.571Z,51.92
2022-10-12T14:28:29.538Z,52.54
2022-10-12T14:33:33.820Z,49.58
2022-10-12T14:38:42.295Z,48.77
2022-10-12T14:43:51.385Z,46.22
2022-10-12T14:48:58.382Z,45.52
2022-10-12T14:54:04.697Z,45.97
2022-10-12T14:59:08.136Z,46.75
2022-10-12T15:04:14.019Z,46.72
2022-10-12T15:09:18.730Z,46.46
2022-10-12T15:14:22.137Z,48.13
2022-10-12T15:19:25.896Z,48.19
2022-10-12T15:24:30.753Z,49.09
2022-10-12T15:29:34.200Z,48.59
2022-10-12T15:34:37.636Z,50.49
2022-10-12T15:39:43.086Z,50.53
2022-10-12T15:44:46.573Z,52.33
2022-10-12T15:49:49.946Z,53.84
2022-10-12T15:54:55.737Z,55.10
2022-10-12T15:59:59.254Z,56.39
2022-10-12T16:05:02.869Z,57.42
2022-10-12T16:10:10.377Z,59.31
2022-10-12T16:15:16.426Z,61.04
2022-10-12T16:20:20.220Z,62.89
2022-10-12T16:25:26.152Z,64.53
2022-10-12T16:30:30.111Z,65.75
2022-10-12T16:35:33.735Z,66.27
2022-10-12T16:40:39.539Z,66.87
2022-10-12T16:45:42.894Z,68.43
2022-10-12T16:50:46.299Z,69.20
2022-10-12T16:55:51.175Z,69.40
2022-10-12T17:00:54.622Z,70.38
2022-10-12T17:06:00.921Z,70.64
2022-10-12T17:11:08.439Z,70.88
2022-10-12T17:16:29.298Z,71.59
2022-10-12T17:21:32.989Z,72.62
2022-10-12T17:26:40.936Z,73.94
2022-10-12T17:31:45.059Z,73.25
2022-10-12T17:36:49.204Z,74.25
2022-10-12T17:41:54.174Z,74.86
2022-10-12T17:46:58.769Z,75.59
2022-10-12T17:52:02.132Z,76.34
2022-10-12T17:57:07.004Z,77.11
2022-10-12T18:02:11.064Z,77.92
2022-10-12T18:07:14.983Z,79.04
2022-10-12T18:12:19.981Z,80.22
2022-10-12T18:17:23.840Z,80.28
2022-10-12T18:22:27.246Z,79.65
2022-10-12T18:27:32.010Z,80.56
2022-10-12T18:32:35.384Z,81.38
2022-10-12T18:37:38.828Z,81.23
2022-10-12T18:42:43.598Z,81.32
2022-10-12T18:47:47.062Z,81.31
2022-10-12T18:52:50.443Z,82.98
2022-10-12T18:57:55.207Z,82.29
2022-10-12T19:02:58.680Z,83.20
2022-10-12T19:08:02.290Z,83.22
2022-10-12T19:13:07.094Z,82.94
2022-10-12T19:18:10.647Z,83.34
2022-10-12T19:23:14.023Z,83.72
2022-10-12T19:28:18.922Z,84.53
2022-10-12T19:33:22.420Z,84.59
2022-10-12T19:38:25.876Z,84.29
2022-10-12T19:43:35.585Z,85.46
2022-10-12T19:48:39.476Z,86.30
2022-10-12T19:53:42.898Z,85.69
2022-10-12T19:58:48.931Z,85.65
2022-10-12T20:03:53.857Z,87.00
2022-10-12T20:09:00.106Z,88.25
2022-10-12T20:14:05.033Z,88.41
2022-10-12T20:19:08.740Z,88.14
2022-10-12T20:24:12.431Z,88.38
2022-10-12T20:29:17.479Z,90.06
2022-10-12T20:34:20.867Z,90.03
2022-10-12T20:39:45.414Z,90.73
2022-10-12T20:45:00.457Z,90.91
2022-10-12T20:50:07.176Z,91.75
2022-10-12T20:55:32.377Z,92.82
2022-10-12T21:00:43.183Z,92.60
2022-10-12T21:06:23.522Z,93.00
2022-10-12T21:11:29.209Z,93.09
2022-10-12T21:16:34.117Z,93.01
2022-10-12T21:21:37.688Z,93.12
2022-10-12T21:26:41.736Z,93.16
2022-10-12T21:31:46.938Z,92.75
2022-10-12T21:37:28.060Z,93.47
2022-10-12T21:42:50.050Z,92.47
2022-10-12T21:47:54.806Z,92.70
2022-10-12T21:53:00.444Z,93.07
2022-10-12T21:58:19.115Z,93.26
2022-10-12T22:03:24.378Z,93.18
2022-10-12T22:08:27.852Z,92.58
2022-10-12T22:13:31.265Z,92.41
2022-10-12T22:18:36.573Z,92.18
2022-10-12T22:23:40.786Z,92.46
2022-10-12T22:28:44.447Z,92.54
2022-10-12T22:33:49.503Z,92.76
2022-10-12T22:38:53.009Z,93.47
2022-10-12T22:43:57.373Z,93.77
2022-10-12T22:49:02.770Z,94.01
2022-10-12T22:54:06.889Z,94.03
2022-10-12T22:59:14.278Z,94.22
2022-10-12T23:04:19.142Z,94.48
2022-10-12T23:09:22.531Z,94.62
2022-10-12T23:14:27.304Z,94.85
2022-10-12T23:19:32.003Z,95.25
2022-10-12T23:24:38.049Z,95.69
2022-10-12T23:29:41.461Z,95.90
2022-10-12T23:34:46.369Z,95.70
2022-10-12T23:39:49.669Z,95.84
2022-10-12T23:44:52.994Z,96.42
2022-10-12T23:49:57.706Z,96.41
2022-10-12T23:55:01.050Z,96.29
